sensor_id;sensor_type;location;lat;lon;timestamp;pressure;altitude;pressure_sealevel;temperature;humidity
75913;BME280;64592;52.168;21.040;2023-01-01T00:03:11;100238.38;;;12.25;75.90
75913;BME280;64592;52.168;21.040;2023-01-01T00:08:13;100247.34;;;12.26;75.82
75913;BME280;64592;52.168;21.040;2023-01-01T00:13:16;100236.13;;;12.30;75.81
75913;BME280;64592;52.168;21.040;2023-01-01T00:18:18;100238.47;;;12.35;75.61
75913;BME280;64592;52.168;21.040;2023-01-01T00:23:19;100221.84;;;12.39;75.41
75913;BME280;64592;52.168;21.040;2023-01-01T00:28:22;100229.94;;;12.39;75.21
75913;BME280;64592;52.168;21.040;2023-01-01T00:33:24;100248.88;;;12.39;75.02
75913;BME280;64592;52.168;21.040;2023-01-01T00:38:26;100233.63;;;12.38;75.02
75913;BME280;64592;52.168;21.040;2023-01-01T00:43:29;100234.16;;;12.32;75.20
75913;BME280;64592;52.168;21.040;2023-01-01T00:48:31;100239.69;;;12.31;75.16
75913;BME280;64592;52.168;21.040;2023-01-01T00:53:33;100241.81;;;12.27;74.98
75913;BME280;64592;52.168;21.040;2023-01-01T00:58:36;100245.03;;;12.21;75.25
75913;BME280;64592;52.168;21.040;2023-01-01T01:03:38;100255.13;;;12.19;75.17
75913;BME280;64592;52.168;21.040;2023-01-01T01:08:42;100235.72;;;12.14;75.56
75913;BME280;64592;52.168;21.040;2023-01-01T01:13:47;100250.22;;;12.13;75.33
75913;BME280;64592;52.168;21.040;2023-01-01T01:18:50;100245.94;;;12.11;75.52
75913;BME280;64592;52.168;21.040;2023-01-01T01:23:52;100238.56;;;12.13;75.33
75913;BME280;64592;52.168;21.040;2023-01-01T01:28:56;100253.78;;;12.14;75.11
75913;BME280;64592;52.168;21.040;2023-01-01T01:33:58;100252.06;;;12.13;75.22
75913;BME280;64592;52.168;21.040;2023-01-01T01:39:00;100248.25;;;12.15;74.95
75913;BME280;64592;52.168;21.040;2023-01-01T01:49:29;100253.66;;;12.15;74.74
75913;BME280;64592;52.168;21.040;2023-01-01T01:54:32;100249.50;;;12.11;74.73
75913;BME280;64592;52.168;21.040;2023-01-01T01:59:39;100250.47;;;12.10;74.49
75913;BME280;64592;52.168;21.040;2023-01-01T02:04:43;100246.78;;;12.11;74.62
75913;BME280;64592;52.168;21.040;2023-01-01T02:09:45;100248.50;;;12.12;74.19
75913;BME280;64592;52.168;21.040;2023-01-01T02:14:48;100239.41;;;12.13;73.96
75913;BME280;64592;52.168;21.040;2023-01-01T02:20:02;100243.97;;;12.13;73.97
75913;BME280;64592;52.168;21.040;2023-01-01T02:25:17;100242.00;;;12.15;74.01
75913;BME280;64592;52.168;21.040;2023-01-01T02:30:26;100240.84;;;12.17;73.68
75913;BME280;64592;52.168;21.040;2023-01-01T02:35:33;100247.75;;;12.21;73.52
75913;BME280;64592;52.168;21.040;2023-01-01T02:40:41;100249.47;;;12.22;73.12
75913;BME280;64592;52.168;21.040;2023-01-01T02:45:46;100233.94;;;12.24;72.70
75913;BME280;64592;52.168;21.040;2023-01-01T02:50:48;100231.75;;;12.29;72.67
75913;BME280;64592;52.168;21.040;2023-01-01T02:55:58;100237.00;;;12.31;72.45
75913;BME280;64592;52.168;21.040;2023-01-01T03:01:08;100233.63;;;12.38;71.77
75913;BME280;64592;52.168;21.040;2023-01-01T03:06:19;100231.16;;;12.47;71.68
75913;BME280;64592;52.168;21.040;2023-01-01T03:11:32;100243.16;;;12.54;71.08
75913;BME280;64592;52.168;21.040;2023-01-01T03:16:40;100236.56;;;12.67;70.17
75913;BME280;64592;52.168;21.040;2023-01-01T03:21:49;100235.88;;;12.75;69.63
75913;BME280;64592;52.168;21.040;2023-01-01T03:26:54;100231.22;;;12.77;69.23
75913;BME280;64592;52.168;21.040;2023-01-01T03:31:59;100211.22;;;12.89;68.15
75913;BME280;64592;52.168;21.040;2023-01-01T03:37:05;100210.41;;;12.98;68.02
75913;BME280;64592;52.168;21.040;2023-01-01T03:42:14;100248.69;;;13.14;66.57
75913;BME280;64592;52.168;21.040;2023-01-01T03:47:19;100252.88;;;13.28;66.25
75913;BME280;64592;52.168;21.040;2023-01-01T03:52:28;100262.47;;;13.32;65.83
75913;BME280;64592;52.168;21.040;2023-01-01T03:57:34;100287.16;;;13.39;65.53
75913;BME280;64592;52.168;21.040;2023-01-01T04:02:43;100263.50;;;13.41;65.03
75913;BME280;64592;52.168;21.040;2023-01-01T04:07:46;100259.66;;;13.43;64.62
75913;BME280;64592;52.168;21.040;2023-01-01T04:12:50;100274.50;;;13.49;64.76
75913;BME280;64592;52.168;21.040;2023-01-01T04:17:54;100254.84;;;13.47;64.55
75913;BME280;64592;52.168;21.040;2023-01-01T04:22:55;100290.63;;;13.50;64.01
75913;BME280;64592;52.168;21.040;2023-01-01T04:27:57;100265.25;;;13.51;64.48
75913;BME280;64592;52.168;21.040;2023-01-01T04:33:03;100277.66;;;13.54;63.75
75913;BME280;64592;52.168;21.040;2023-01-01T04:38:05;100287.78;;;13.52;63.78
75913;BME280;64592;52.168;21.040;2023-01-01T04:43:07;100282.50;;;13.50;63.94
75913;BME280;64592;52.168;21.040;2023-01-01T04:48:10;100290.47;;;13.52;63.61
75913;BME280;64592;52.168;21.040;2023-01-01T04:53:11;100291.94;;;13.56;62.99
75913;BME280;64592;52.168;21.040;2023-01-01T04:58:13;100279.09;;;13.58;62.83
75913;BME280;64592;52.168;21.040;2023-01-01T05:03:16;100279.69;;;13.62;62.57
75913;BME280;64592;52.168;21.040;2023-01-01T05:08:18;100281.41;;;13.63;62.58
75913;BME280;64592;52.168;21.040;2023-01-01T05:13:20;100284.13;;;13.63;62.28
75913;BME280;64592;52.168;21.040;2023-01-01T05:18:23;100272.59;;;13.70;62.25
75913;BME280;64592;52.168;21.040;2023-01-01T05:23:24;100282.88;;;13.76;61.46
75913;BME280;64592;52.168;21.040;2023-01-01T05:28:26;100283.31;;;13.81;61.10
75913;BME280;64592;52.168;21.040;2023-01-01T05:33:29;100296.88;;;13.81;61.36
75913;BME280;64592;52.168;21.040;2023-01-01T05:38:31;100317.69;;;13.81;61.45
75913;BME280;64592;52.168;21.040;2023-01-01T05:43:33;100312.25;;;13.81;61.05
75913;BME280;64592;52.168;21.040;2023-01-01T05:48:36;100305.97;;;13.80;61.08
75913;BME280;64592;52.168;21.040;2023-01-01T05:53:38;100311.16;;;13.83;60.80
75913;BME280;64592;52.168;21.040;2023-01-01T05:58:41;100313.84;;;13.83;60.41
75913;BME280;64592;52.168;21.040;2023-01-01T06:03:45;100329.38;;;13.81;60.74
75913;BME280;64592;52.168;21.040;2023-01-01T06:08:49;100327.97;;;13.77;60.98
75913;BME280;64592;52.168;21.040;2023-01-01T06:13:51;100332.34;;;13.78;60.55
75913;BME280;64592;52.168;21.040;2023-01-01T06:18:55;100346.06;;;13.77;60.98
75913;BME280;64592;52.168;21.040;2023-01-01T06:23:57;100333.63;;;13.74;60.60
75913;BME280;64592;52.168;21.040;2023-01-01T06:29:00;100361.59;;;13.75;60.17
75913;BME280;64592;52.168;21.040;2023-01-01T06:34:04;100356.59;;;13.70;60.40
75913;BME280;64592;52.168;21.040;2023-01-01T06:39:06;100365.41;;;13.72;60.44
75913;BME280;64592;52.168;21.040;2023-01-01T06:44:08;100356.13;;;13.65;60.42
75913;BME280;64592;52.168;21.040;2023-01-01T06:49:11;100364.38;;;13.64;60.75
75913;BME280;64592;52.168;21.040;2023-01-01T06:54:13;100370.06;;;13.60;60.90
75913;BME280;64592;52.168;21.040;2023-01-01T06:59:15;100370.22;;;13.59;60.50
75913;BME280;64592;52.168;21.040;2023-01-01T07:04:18;100380.06;;;13.60;60.35
75913;BME280;64592;52.168;21.040;2023-01-01T07:09:20;100376.47;;;13.59;60.74
75913;BME280;64592;52.168;21.040;2023-01-01T07:14:21;100378.63;;;13.56;60.68
75913;BME280;64592;52.168;21.040;2023-01-01T07:19:24;100385.28;;;13.52;60.73
75913;BME280;64592;52.168;21.040;2023-01-01T07:24:26;100386.75;;;13.56;60.33
75913;BME280;64592;52.168;21.040;2023-01-01T07:29:28;100401.13;;;13.56;60.37
75913;BME280;64592;52.168;21.040;2023-01-01T07:34:31;100402.59;;;13.60;60.29
75913;BME280;64592;52.168;21.040;2023-01-01T07:39:32;100404.88;;;13.65;60.00
75913;BME280;64592;52.168;21.040;2023-01-01T07:44:34;100436.16;;;13.69;59.65
75913;BME280;64592;52.168;21.040;2023-01-01T07:49:37;100428.72;;;13.71;58.99
75913;BME280;64592;52.168;21.040;2023-01-01T07:54:39;100431.78;;;13.78;59.13
75913;BME280;64592;52.168;21.040;2023-01-01T07:59:40;100432.22;;;13.83;58.57
75913;BME280;64592;52.168;21.040;2023-01-01T08:04:43;100443.81;;;13.94;58.08
75913;BME280;64592;52.168;21.040;2023-01-01T08:09:45;100454.66;;;13.94;57.94
75913;BME280;64592;52.168;21.040;2023-01-01T08:14:47;100460.41;;;14.01;57.76
75913;BME280;64592;52.168;21.040;2023-01-01T08:19:50;100455.59;;;14.05;57.72
75913;BME280;64592;52.168;21.040;2023-01-01T08:24:52;100467.47;;;14.13;56.97
75913;BME280;64592;52.168;21.040;2023-01-01T08:29:53;100463.34;;;14.19;56.87
75913;BME280;64592;52.168;21.040;2023-01-01T08:34:56;100462.25;;;14.21;57.18
75913;BME280;64592;52.168;21.040;2023-01-01T08:39:58;100466.50;;;14.24;57.12
75913;BME280;64592;52.168;21.040;2023-01-01T08:45:00;100473.38;;;14.28;56.55
75913;BME280;64592;52.168;21.040;2023-01-01T08:50:03;100495.25;;;14.36;56.26
75913;BME280;64592;52.168;21.040;2023-01-01T08:55:06;100485.63;;;14.43;55.89
75913;BME280;64592;52.168;21.040;2023-01-01T09:00:09;100489.03;;;14.45;56.11
75913;BME280;64592;52.168;21.040;2023-01-01T09:05:12;100495.50;;;14.54;55.72
75913;BME280;64592;52.168;21.040;2023-01-01T09:10:14;100501.69;;;14.65;55.12
75913;BME280;64592;52.168;21.040;2023-01-01T09:15:16;100501.00;;;14.83;54.70
75913;BME280;64592;52.168;21.040;2023-01-01T09:20:19;100498.63;;;14.89;54.21
75913;BME280;64592;52.168;21.040;2023-01-01T09:25:20;100501.06;;;15.02;53.68
75913;BME280;64592;52.168;21.040;2023-01-01T09:30:22;100493.75;;;15.12;53.71
75913;BME280;64592;52.168;21.040;2023-01-01T09:35:25;100495.78;;;15.29;52.11
75913;BME280;64592;52.168;21.040;2023-01-01T09:40:31;100490.91;;;15.42;52.14
75913;BME280;64592;52.168;21.040;2023-01-01T09:45:41;100489.38;;;15.59;51.81
75913;BME280;64592;52.168;21.040;2023-01-01T09:50:52;100488.50;;;15.78;50.60
75913;BME280;64592;52.168;21.040;2023-01-01T09:55:56;100491.91;;;15.89;50.33
75913;BME280;64592;52.168;21.040;2023-01-01T10:01:02;100499.19;;;15.99;49.83
75913;BME280;64592;52.168;21.040;2023-01-01T10:06:14;100487.25;;;16.09;49.10
75913;BME280;64592;52.168;21.040;2023-01-01T10:11:25;100482.63;;;16.29;48.58
75913;BME280;64592;52.168;21.040;2023-01-01T10:16:32;100489.72;;;16.40;48.13
75913;BME280;64592;52.168;21.040;2023-01-01T10:21:38;100492.69;;;16.46;48.16
75913;BME280;64592;52.168;21.040;2023-01-01T10:26:43;100492.56;;;16.48;47.73
75913;BME280;64592;52.168;21.040;2023-01-01T10:31:45;100496.00;;;16.50;47.58
75913;BME280;64592;52.168;21.040;2023-01-01T10:36:51;100482.81;;;16.45;47.75
75913;BME280;64592;52.168;21.040;2023-01-01T10:41:56;100462.47;;;16.49;46.97
75913;BME280;64592;52.168;21.040;2023-01-01T10:47:02;100461.63;;;16.49;47.16
75913;BME280;64592;52.168;21.040;2023-01-01T10:52:13;100457.75;;;16.51;47.31
75913;BME280;64592;52.168;21.040;2023-01-01T10:57:19;100458.69;;;16.60;46.36
75913;BME280;64592;52.168;21.040;2023-01-01T11:02:23;100447.25;;;16.66;46.45
75913;BME280;64592;52.168;21.040;2023-01-01T11:07:29;100458.22;;;16.74;45.52
75913;BME280;64592;52.168;21.040;2023-01-01T11:12:34;100450.44;;;16.79;45.57
75913;BME280;64592;52.168;21.040;2023-01-01T11:17:36;100444.22;;;16.87;45.13
75913;BME280;64592;52.168;21.040;2023-01-01T11:22:41;100456.22;;;16.94;45.02
75913;BME280;64592;52.168;21.040;2023-01-01T11:27:44;100447.44;;;17.00;45.22
75913;BME280;64592;52.168;21.040;2023-01-01T11:32:47;100449.53;;;17.06;44.50
75913;BME280;64592;52.168;21.040;2023-01-01T11:37:53;100448.06;;;17.12;44.49
75913;BME280;64592;52.168;21.040;2023-01-01T11:42:57;100453.19;;;17.15;44.57
75913;BME280;64592;52.168;21.040;2023-01-01T11:48:02;100437.84;;;17.14;45.25
75913;BME280;64592;52.168;21.040;2023-01-01T11:53:26;100442.63;;;17.12;44.67
75913;BME280;64592;52.168;21.040;2023-01-01T11:58:32;100439.41;;;17.16;44.42
75913;BME280;64592;52.168;21.040;2023-01-01T12:03:39;100455.78;;;17.16;44.70
75913;BME280;64592;52.168;21.040;2023-01-01T12:08:49;100435.69;;;17.17;44.59
75913;BME280;64592;52.168;21.040;2023-01-01T12:13:56;100460.06;;;17.19;44.33
75913;BME280;64592;52.168;21.040;2023-01-01T12:19:01;100450.56;;;17.23;45.19
75913;BME280;64592;52.168;21.040;2023-01-01T12:24:10;100456.16;;;17.21;44.23
75913;BME280;64592;52.168;21.040;2023-01-01T12:29:29;100461.16;;;17.26;44.52
75913;BME280;64592;52.168;21.040;2023-01-01T12:34:38;100456.47;;;17.36;44.20
75913;BME280;64592;52.168;21.040;2023-01-01T12:51:00;100472.72;;;17.28;44.37
75913;BME280;64592;52.168;21.040;2023-01-01T12:56:13;100475.78;;;17.25;44.88
75913;BME280;64592;52.168;21.040;2023-01-01T13:01:19;100474.69;;;17.18;45.22
75913;BME280;64592;52.168;21.040;2023-01-01T13:06:29;100465.34;;;17.02;45.03
75913;BME280;64592;52.168;21.040;2023-01-01T13:11:34;100495.22;;;16.94;45.38
75913;BME280;64592;52.168;21.040;2023-01-01T13:16:37;100483.94;;;16.89;46.06
75913;BME280;64592;52.168;21.040;2023-01-01T13:21:40;100498.59;;;16.79;45.89
75913;BME280;64592;52.168;21.040;2023-01-01T13:26:43;100485.47;;;16.74;46.56
75913;BME280;64592;52.168;21.040;2023-01-01T13:32:07;100501.69;;;16.66;46.27
75913;BME280;64592;52.168;21.040;2023-01-01T13:37:25;100476.75;;;16.61;46.67
75913;BME280;64592;52.168;21.040;2023-01-01T13:42:40;100479.78;;;16.58;46.94
75913;BME280;64592;52.168;21.040;2023-01-01T13:48:07;100490.41;;;16.51;47.01
75913;BME280;64592;52.168;21.040;2023-01-01T13:53:38;100505.78;;;16.43;47.85
75913;BME280;64592;52.168;21.040;2023-01-01T13:59:09;100509.78;;;16.39;47.74
75913;BME280;64592;52.168;21.040;2023-01-01T14:04:31;100528.03;;;16.28;48.58
75913;BME280;64592;52.168;21.040;2023-01-01T14:09:35;100527.19;;;16.18;48.72
75913;BME280;64592;52.168;21.040;2023-01-01T14:14:38;100538.66;;;16.12;49.01
75913;BME280;64592;52.168;21.040;2023-01-01T14:19:42;100558.44;;;16.05;49.19
75913;BME280;64592;52.168;21.040;2023-01-01T14:24:46;100561.59;;;15.90;49.54
75913;BME280;64592;52.168;21.040;2023-01-01T14:29:50;100573.91;;;15.85;49.93
75913;BME280;64592;52.168;21.040;2023-01-01T14:34:59;100585.06;;;15.82;50.57
75913;BME280;64592;52.168;21.040;2023-01-01T14:40:07;100597.53;;;15.75;51.14
75913;BME280;64592;52.168;21.040;2023-01-01T14:45:15;100587.50;;;15.66;51.54
75913;BME280;64592;52.168;21.040;2023-01-01T14:50:21;100599.66;;;15.62;51.83
75913;BME280;64592;52.168;21.040;2023-01-01T14:55:26;100602.78;;;15.57;52.31
75913;BME280;64592;52.168;21.040;2023-01-01T15:00:33;100613.63;;;15.47;52.60
75913;BME280;64592;52.168;21.040;2023-01-01T15:05:35;100613.19;;;15.42;52.68
75913;BME280;64592;52.168;21.040;2023-01-01T15:10:37;100602.88;;;15.36;53.52
75913;BME280;64592;52.168;21.040;2023-01-01T15:15:42;100591.97;;;15.27;53.80
75913;BME280;64592;52.168;21.040;2023-01-01T15:20:51;100571.97;;;15.18;54.11
75913;BME280;64592;52.168;21.040;2023-01-01T15:25:53;100581.38;;;15.14;53.97
75913;BME280;64592;52.168;21.040;2023-01-01T15:30:57;100576.53;;;15.08;54.50
75913;BME280;64592;52.168;21.040;2023-01-01T15:35:58;100577.22;;;15.00;54.98
75913;BME280;64592;52.168;21.040;2023-01-01T15:41:24;100593.94;;;14.96;55.31
75913;BME280;64592;52.168;21.040;2023-01-01T15:46:28;100597.91;;;14.92;55.33
75913;BME280;64592;52.168;21.040;2023-01-01T15:51:30;100614.63;;;14.87;55.77
75913;BME280;64592;52.168;21.040;2023-01-01T15:56:37;100627.59;;;14.84;55.12
75913;BME280;64592;52.168;21.040;2023-01-01T16:01:41;100638.72;;;14.81;55.56
75913;BME280;64592;52.168;21.040;2023-01-01T16:06:45;100649.97;;;14.76;56.20
75913;BME280;64592;52.168;21.040;2023-01-01T16:11:50;100655.09;;;14.69;56.55
75913;BME280;64592;52.168;21.040;2023-01-01T16:16:54;100664.50;;;14.65;56.70
75913;BME280;64592;52.168;21.040;2023-01-01T16:21:59;100660.59;;;14.58;56.79
75913;BME280;64592;52.168;21.040;2023-01-01T16:27:01;100660.13;;;14.53;56.92
75913;BME280;64592;52.168;21.040;2023-01-01T16:32:05;100666.81;;;14.49;57.46
75913;BME280;64592;52.168;21.040;2023-01-01T16:37:06;100684.09;;;14.48;57.27
75913;BME280;64592;52.168;21.040;2023-01-01T16:42:10;100696.91;;;14.46;57.39
75913;BME280;64592;52.168;21.040;2023-01-01T16:47:14;100715.59;;;14.40;57.92
75913;BME280;64592;52.168;21.040;2023-01-01T16:52:16;100718.41;;;14.38;58.37
75913;BME280;64592;52.168;21.040;2023-01-01T16:57:17;100705.09;;;14.35;58.13
75913;BME280;64592;52.168;21.040;2023-01-01T17:02:20;100708.06;;;14.32;58.32
75913;BME280;64592;52.168;21.040;2023-01-01T17:07:22;100726.34;;;14.30;58.58
75913;BME280;64592;52.168;21.040;2023-01-01T17:12:24;100717.59;;;14.26;58.63
75913;BME280;64592;52.168;21.040;2023-01-01T17:17:27;100712.56;;;14.22;58.66
75913;BME280;64592;52.168;21.040;2023-01-01T17:22:29;100719.22;;;14.18;58.75
75913;BME280;64592;52.168;21.040;2023-01-01T17:27:30;100702.50;;;14.13;59.13
75913;BME280;64592;52.168;21.040;2023-01-01T17:32:33;100710.75;;;14.11;59.43
75913;BME280;64592;52.168;21.040;2023-01-01T17:37:35;100704.75;;;14.08;59.19
75913;BME280;64592;52.168;21.040;2023-01-01T17:42:37;100717.81;;;14.03;59.42
75913;BME280;64592;52.168;21.040;2023-01-01T17:47:40;100721.28;;;13.93;59.86
75913;BME280;64592;52.168;21.040;2023-01-01T17:52:41;100731.66;;;13.88;59.75
75913;BME280;64592;52.168;21.040;2023-01-01T17:57:43;100735.63;;;13.84;60.27
75913;BME280;64592;52.168;21.040;2023-01-01T18:02:46;100737.84;;;13.79;60.50
75913;BME280;64592;52.168;21.040;2023-01-01T18:07:50;100742.91;;;13.73;60.43
75913;BME280;64592;52.168;21.040;2023-01-01T18:12:54;100751.41;;;13.68;60.82
75913;BME280;64592;52.168;21.040;2023-01-01T18:17:57;100762.75;;;13.62;60.90
75913;BME280;64592;52.168;21.040;2023-01-01T18:22:58;100772.13;;;13.58;61.24
75913;BME280;64592;52.168;21.040;2023-01-01T18:28:00;100769.66;;;13.55;61.15
75913;BME280;64592;52.168;21.040;2023-01-01T18:33:04;100774.47;;;13.51;61.31
75913;BME280;64592;52.168;21.040;2023-01-01T18:38:09;100787.41;;;13.48;61.57
75913;BME280;64592;52.168;21.040;2023-01-01T18:43:18;100785.06;;;13.43;61.89
75913;BME280;64592;52.168;21.040;2023-01-01T18:48:23;100792.56;;;13.40;61.84
75913;BME280;64592;52.168;21.040;2023-01-01T18:53:25;100790.09;;;13.37;62.13
75913;BME280;64592;52.168;21.040;2023-01-01T18:58:28;100804.13;;;13.31;61.98
75913;BME280;64592;52.168;21.040;2023-01-01T19:03:33;100795.53;;;13.26;62.37
75913;BME280;64592;52.168;21.040;2023-01-01T19:08:35;100809.28;;;13.23;62.28
75913;BME280;64592;52.168;21.040;2023-01-01T19:13:38;100820.34;;;13.19;62.43
75913;BME280;64592;52.168;21.040;2023-01-01T19:18:43;100827.88;;;13.16;62.50
75913;BME280;64592;52.168;21.040;2023-01-01T19:23:48;100838.81;;;13.14;62.65
75913;BME280;64592;52.168;21.040;2023-01-01T19:28:52;100843.59;;;13.11;62.92
75913;BME280;64592;52.168;21.040;2023-01-01T19:33:55;100860.91;;;13.08;62.99
75913;BME280;64592;52.168;21.040;2023-01-01T19:38:57;100859.41;;;13.04;62.60
75913;BME280;64592;52.168;21.040;2023-01-01T19:43:58;100871.47;;;13.00;63.65
75913;BME280;64592;52.168;21.040;2023-01-01T19:49:01;100879.72;;;12.99;63.38
75913;BME280;64592;52.168;21.040;2023-01-01T19:54:03;100882.53;;;12.97;63.26
75913;BME280;64592;52.168;21.040;2023-01-01T19:59:06;100893.72;;;12.93;63.50
75913;BME280;64592;52.168;21.040;2023-01-01T20:04:09;100882.13;;;12.91;63.57
75913;BME280;64592;52.168;21.040;2023-01-01T20:09:11;100888.53;;;12.90;63.70
75913;BME280;64592;52.168;21.040;2023-01-01T20:14:13;100893.09;;;12.89;63.75
75913;BME280;64592;52.168;21.040;2023-01-01T20:19:16;100897.88;;;12.86;63.82
75913;BME280;64592;52.168;21.040;2023-01-01T20:24:17;100897.22;;;12.82;63.96
75913;BME280;64592;52.168;21.040;2023-01-01T20:29:19;100898.22;;;12.81;63.89
75913;BME280;64592;52.168;21.040;2023-01-01T20:34:22;100886.66;;;12.79;63.82
75913;BME280;64592;52.168;21.040;2023-01-01T20:39:24;100883.94;;;12.79;64.14
75913;BME280;64592;52.168;21.040;2023-01-01T20:44:26;100884.06;;;12.77;64.00
75913;BME280;64592;52.168;21.040;2023-01-01T20:49:29;100896.63;;;12.78;64.26
75913;BME280;64592;52.168;21.040;2023-01-01T20:54:31;100886.78;;;12.77;64.01
75913;BME280;64592;52.168;21.040;2023-01-01T20:59:32;100887.03;;;12.74;63.93
75913;BME280;64592;52.168;21.040;2023-01-01T21:04:36;100898.69;;;12.75;64.10
75913;BME280;64592;52.168;21.040;2023-01-01T21:09:39;100904.09;;;12.75;64.39
75913;BME280;64592;52.168;21.040;2023-01-01T21:14:41;100896.97;;;12.74;63.81
75913;BME280;64592;52.168;21.040;2023-01-01T21:19:44;100903.13;;;12.76;63.95
75913;BME280;64592;52.168;21.040;2023-01-01T21:24:46;100923.03;;;12.75;64.61
75913;BME280;64592;52.168;21.040;2023-01-01T21:29:50;100920.22;;;12.76;64.47
75913;BME280;64592;52.168;21.040;2023-01-01T21:34:54;100922.19;;;12.74;64.32
75913;BME280;64592;52.168;21.040;2023-01-01T21:39:56;100927.81;;;12.71;64.69
75913;BME280;64592;52.168;21.040;2023-01-01T21:44:58;100930.34;;;12.62;64.85
75913;BME280;64592;52.168;21.040;2023-01-01T21:50:04;100936.22;;;12.56;64.87
75913;BME280;64592;52.168;21.040;2023-01-01T21:55:24;100946.72;;;12.48;65.10
75913;BME280;64592;52.168;21.040;2023-01-01T22:00:47;100940.06;;;12.40;65.80
75913;BME280;64592;52.168;21.040;2023-01-01T22:05:50;100935.97;;;12.35;65.63
75913;BME280;64592;52.168;21.040;2023-01-01T22:10:52;100941.84;;;12.29;66.16
75913;BME280;64592;52.168;21.040;2023-01-01T22:15:54;100941.53;;;12.21;66.26
75913;BME280;64592;52.168;21.040;2023-01-01T22:20:57;100943.03;;;12.12;66.66
75913;BME280;64592;52.168;21.040;2023-01-01T22:26:03;100942.72;;;12.04;67.02
75913;BME280;64592;52.168;21.040;2023-01-01T22:31:06;100939.50;;;11.99;66.94
75913;BME280;64592;52.168;21.040;2023-01-01T22:36:14;100935.63;;;11.90;67.25
75913;BME280;64592;52.168;21.040;2023-01-01T22:41:17;100930.66;;;11.84;66.90
75913;BME280;64592;52.168;21.040;2023-01-01T22:46:25;100935.31;;;11.82;67.49
75913;BME280;64592;52.168;21.040;2023-01-01T22:51:37;100930.44;;;11.75;68.17
75913;BME280;64592;52.168;21.040;2023-01-01T22:56:41;100941.66;;;11.68;68.05
75913;BME280;64592;52.168;21.040;2023-01-01T23:01:42;100938.63;;;11.60;68.18
75913;BME280;64592;52.168;21.040;2023-01-01T23:06:45;100958.72;;;11.56;68.08
75913;BME280;64592;52.168;21.040;2023-01-01T23:11:47;100954.72;;;11.49;68.15
75913;BME280;64592;52.168;21.040;2023-01-01T23:16:49;100943.28;;;11.46;68.17
75913;BME280;64592;52.168;21.040;2023-01-01T23:21:52;100945.75;;;11.36;68.63
75913;BME280;64592;52.168;21.040;2023-01-01T23:26:55;100947.03;;;11.31;68.52
75913;BME280;64592;52.168;21.040;2023-01-01T23:31:57;100942.69;;;11.28;68.51
75913;BME280;64592;52.168;21.040;2023-01-01T23:37:01;100944.88;;;11.23;68.85
75913;BME280;64592;52.168;21.040;2023-01-01T23:42:02;100944.19;;;11.19;68.72
75913;BME280;64592;52.168;21.040;2023-01-01T23:47:04;100948.19;;;11.14;68.98
75913;BME280;64592;52.168;21.040;2023-01-01T23:52:07;100940.31;;;11.11;68.74
75913;BME280;64592;52.168;21.040;2023-01-01T23:57:09;100940.59;;;11.06;69.11
